createdAt,value
2018-03-27T00:00:20.667Z,17.25
2018-03-27T00:02:46.903Z,15.65
2018-03-27T00:05:15.149Z,16.80
2018-03-27T00:07:42.119Z,14.82
2018-03-27T00:10:08.420Z,18.17
2018-03-27T00:12:34.673Z,18.60
2018-03-27T00:15:00.912Z,17.90
2018-03-27T00:17:27.191Z,18.15
2018-03-27T00:19:54.192Z,18.85
2018-03-27T00:22:20.456Z,18.80
2018-03-27T00:24:46.694Z,17.67
2018-03-27T00:27:13.479Z,18.40
2018-03-27T00:29:51.994Z,17.75
2018-03-27T00:32:30.494Z,17.73
2018-03-27T00:35:09.127Z,18.77
2018-03-27T00:37:47.623Z,19.02
2018-03-27T00:40:26.132Z,19.00
2018-03-27T00:42:53.146Z,18.90
2018-03-27T00:45:19.416Z,19.00
2018-03-27T00:47:45.650Z,17.73
2018-03-27T00:50:11.934Z,37.10
2018-03-27T00:52:38.160Z,19.20
2018-03-27T00:55:04.395Z,19.08
2018-03-27T00:57:30.638Z,19.48
2018-03-27T00:59:57.617Z,18.95
2018-03-27T01:02:23.866Z,17.92
2018-03-27T01:04:50.116Z,21.85
2018-03-27T01:07:16.355Z,21.65
2018-03-27T01:09:42.604Z,23.20
2018-03-27T01:12:09.595Z,19.37
2018-03-27T01:14:35.862Z,20.85
2018-03-27T01:17:02.126Z,21.12
2018-03-27T01:19:28.404Z,20.23
2018-03-27T01:21:54.648Z,21.50
2018-03-27T01:24:20.880Z,71.37
2018-03-27T01:26:47.117Z,24.35
2018-03-27T01:29:13.348Z,21.15
2018-03-27T01:31:39.603Z,21.50
2018-03-27T01:34:05.849Z,20.12
2018-03-27T01:36:32.104Z,23.55
2018-03-27T01:38:58.346Z,20.10
2018-03-27T01:41:24.594Z,20.92
2018-03-27T01:43:50.821Z,21.52
2018-03-27T01:46:17.819Z,21.00
2018-03-27T01:48:44.066Z,20.52
2018-03-27T01:51:11.044Z,20.27
2018-03-27T01:53:38.066Z,22.15
2018-03-27T01:56:04.311Z,19.10
2018-03-27T01:58:30.575Z,21.50
2018-03-27T02:00:56.807Z,22.13
2018-03-27T02:03:23.079Z,53.40
2018-03-27T02:05:49.327Z,22.87
2018-03-27T02:08:15.555Z,25.27
2018-03-27T02:10:41.727Z,21.58
2018-03-27T02:13:13.996Z,20.62
2018-03-27T02:15:46.347Z,20.75
2018-03-27T02:18:19.437Z,20.48
2018-03-27T02:20:52.696Z,21.75
2018-03-27T02:23:24.819Z,20.33
2018-03-27T02:25:51.065Z,20.88
2018-03-27T02:28:17.318Z,22.02
2018-03-27T02:30:43.558Z,23.95
2018-03-27T02:33:09.812Z,25.23
2018-03-27T02:35:36.791Z,22.92
2018-03-27T02:38:03.056Z,23.62
2018-03-27T02:40:29.296Z,22.87
2018-03-27T02:42:55.559Z,23.65
2018-03-27T02:45:21.820Z,22.70
2018-03-27T02:47:48.097Z,21.73
2018-03-27T02:50:15.095Z,23.62
2018-03-27T02:52:41.340Z,60.20
2018-03-27T02:55:07.611Z,23.27
2018-03-27T02:57:34.628Z,22.98
2018-03-27T03:00:00.875Z,24.23
2018-03-27T03:02:27.115Z,22.40
2018-03-27T03:04:54.162Z,21.30
2018-03-27T03:07:21.179Z,23.15
2018-03-27T03:09:47.414Z,22.40
2018-03-27T03:12:13.696Z,24.58
2018-03-27T03:14:39.964Z,23.25
2018-03-27T03:17:06.214Z,23.38
2018-03-27T03:19:32.443Z,25.05
2018-03-27T03:21:58.683Z,22.87
2018-03-27T03:24:25.699Z,24.65
2018-03-27T03:26:51.967Z,25.05
2018-03-27T03:29:18.939Z,25.65
2018-03-27T03:31:45.175Z,22.45
2018-03-27T03:34:11.423Z,25.90
2018-03-27T03:36:37.656Z,22.98
2018-03-27T03:39:04.851Z,27.62
2018-03-27T03:41:31.831Z,28.38
2018-03-27T03:43:58.155Z,24.23
2018-03-27T03:46:24.383Z,24.55
2018-03-27T03:48:50.630Z,23.85
2018-03-27T03:51:16.867Z,25.33
2018-03-27T03:53:43.095Z,25.08
2018-03-27T03:56:09.336Z,23.38
2018-03-27T03:58:35.587Z,23.30
2018-03-27T04:01:01.839Z,25.05
2018-03-27T04:03:28.071Z,22.58
2018-03-27T04:05:54.350Z,26.08
2018-03-27T04:08:20.595Z,25.88
2018-03-27T04:10:46.842Z,26.02
2018-03-27T04:13:13.087Z,25.90
2018-03-27T04:15:39.358Z,26.95
2018-03-27T04:18:05.620Z,25.12
2018-03-27T04:20:31.867Z,24.33
2018-03-27T04:22:58.839Z,27.52
2018-03-27T04:25:25.070Z,26.23
2018-03-27T04:27:51.339Z,31.77
2018-03-27T04:30:17.569Z,25.45
2018-03-27T04:32:43.824Z,24.55
2018-03-27T04:35:10.809Z,25.90
2018-03-27T04:37:37.067Z,26.02
2018-03-27T04:40:03.304Z,25.02
2018-03-27T04:42:29.579Z,27.40
2018-03-27T04:44:55.807Z,26.70
2018-03-27T04:47:22.059Z,27.23
2018-03-27T04:49:48.348Z,25.73
2018-03-27T04:52:14.592Z,27.70
2018-03-27T04:54:40.838Z,27.77
2018-03-27T04:57:07.088Z,29.52
2018-03-27T04:59:33.340Z,30.10
2018-03-27T05:01:59.576Z,27.77
2018-03-27T05:04:26.596Z,28.42
2018-03-27T05:06:52.856Z,27.05
2018-03-27T05:09:26.136Z,26.75
2018-03-27T05:11:52.377Z,25.20
2018-03-27T05:14:19.723Z,29.17
2018-03-27T05:16:46.049Z,31.27
2018-03-27T05:19:12.352Z,28.83
2018-03-27T05:21:38.616Z,28.62
2018-03-27T05:24:04.861Z,28.10
2018-03-27T05:26:31.926Z,28.92
2018-03-27T05:28:58.127Z,28.95
2018-03-27T05:31:24.378Z,28.10
2018-03-27T05:33:51.381Z,27.10
2018-03-27T05:36:17.660Z,26.80
2018-03-27T05:38:43.943Z,28.62
2018-03-27T05:41:10.178Z,28.23
2018-03-27T05:43:36.440Z,27.08
2018-03-27T05:46:02.704Z,23.98
2018-03-27T05:48:29.014Z,26.15
2018-03-27T05:50:55.265Z,28.38
2018-03-27T05:53:21.551Z,28.12
2018-03-27T05:55:48.615Z,25.23
2018-03-27T05:58:14.907Z,25.35
2018-03-27T06:00:41.155Z,23.10
2018-03-27T06:03:08.149Z,24.85
2018-03-27T06:05:34.417Z,22.87
2018-03-27T06:08:01.415Z,22.77
2018-03-27T06:10:27.694Z,22.45
2018-03-27T06:12:53.964Z,22.52
2018-03-27T06:15:20.220Z,20.58
2018-03-27T06:17:46.455Z,21.75
2018-03-27T06:20:12.747Z,21.05
2018-03-27T06:22:38.980Z,21.33
2018-03-27T06:25:05.239Z,21.10
2018-03-27T06:27:31.475Z,19.48
2018-03-27T06:29:57.787Z,19.45
2018-03-27T06:32:24.063Z,19.00
2018-03-27T06:34:51.096Z,20.05
2018-03-27T06:37:17.358Z,20.35
2018-03-27T06:39:43.603Z,18.80
2018-03-27T06:42:09.957Z,18.33
2018-03-27T06:44:36.130Z,17.55
2018-03-27T06:47:03.180Z,18.60
2018-03-27T06:49:29.442Z,18.35
2018-03-27T06:51:55.679Z,18.55
2018-03-27T06:54:21.953Z,18.80
2018-03-27T06:56:48.247Z,18.50
2018-03-27T06:59:14.520Z,19.10
2018-03-27T07:01:40.766Z,17.73
2018-03-27T07:04:07.763Z,17.50
2018-03-27T07:06:34.003Z,17.85
2018-03-27T07:09:00.277Z,17.90
2018-03-27T07:11:27.255Z,17.05
2018-03-27T07:13:53.531Z,17.35
2018-03-27T07:16:19.793Z,23.38
2018-03-27T07:18:46.057Z,16.35
2018-03-27T07:21:12.300Z,17.45
2018-03-27T07:23:39.311Z,17.20
2018-03-27T07:26:05.570Z,17.58
2018-03-27T07:28:32.539Z,19.15
2018-03-27T07:30:59.549Z,18.10
2018-03-27T07:33:25.787Z,19.17
2018-03-27T07:35:52.656Z,19.30
2018-03-27T07:38:18.947Z,19.77
2018-03-27T07:40:45.187Z,19.33
2018-03-27T07:43:11.557Z,19.02
2018-03-27T07:45:38.555Z,18.90
2018-03-27T07:48:04.815Z,19.58
2018-03-27T07:50:31.067Z,20.05
2018-03-27T07:52:58.060Z,19.08
2018-03-27T07:55:24.312Z,18.98
2018-03-27T07:57:50.575Z,19.52
2018-03-27T08:00:17.583Z,18.48
2018-03-27T08:02:44.162Z,17.65
2018-03-27T08:05:11.180Z,17.60
2018-03-27T08:07:37.417Z,19.77
2018-03-27T08:10:03.665Z,16.45
2018-03-27T08:12:30.643Z,17.50
2018-03-27T08:14:56.887Z,18.08
2018-03-27T08:17:23.133Z,17.60
2018-03-27T08:19:49.398Z,18.87
2018-03-27T08:22:16.387Z,18.37
2018-03-27T08:24:42.635Z,20.70
2018-03-27T08:27:08.886Z,19.77
2018-03-27T08:29:35.111Z,20.15
2018-03-27T08:32:01.361Z,18.75
2018-03-27T08:34:28.367Z,18.23
2018-03-27T08:36:54.612Z,18.00
2018-03-27T08:39:20.879Z,20.25
2018-03-27T08:41:47.138Z,20.27
2018-03-27T08:44:13.396Z,16.95
2018-03-27T08:46:39.657Z,17.45
2018-03-27T08:49:06.644Z,17.62
2018-03-27T08:51:32.886Z,17.60
2018-03-27T08:53:59.142Z,19.27
2018-03-27T08:56:25.511Z,17.12
2018-03-27T08:58:51.775Z,17.08
2018-03-27T09:01:18.055Z,18.30
2018-03-27T09:03:45.132Z,18.60
2018-03-27T09:06:11.347Z,20.42
2018-03-27T09:08:37.584Z,20.17
2018-03-27T09:11:03.870Z,20.20
2018-03-27T09:13:30.116Z,20.62
2018-03-27T09:15:57.168Z,22.92
2018-03-27T09:18:24.217Z,19.15
2018-03-27T09:20:50.505Z,19.87
2018-03-27T09:23:16.796Z,19.27
2018-03-27T09:25:43.095Z,19.25
2018-03-27T09:28:10.103Z,17.92
2018-03-27T09:33:10.166Z,16.45
2018-03-27T09:35:37.219Z,16.05
2018-03-27T09:38:03.464Z,16.35
2018-03-27T09:40:30.456Z,16.77
2018-03-27T09:42:56.699Z,16.05
2018-03-27T09:45:22.936Z,15.02
2018-03-27T09:47:49.191Z,15.68
2018-03-27T09:50:16.167Z,16.95
2018-03-27T09:52:42.446Z,16.37
2018-03-27T09:55:08.693Z,15.73
2018-03-27T09:57:34.970Z,18.77
2018-03-27T10:00:01.243Z,17.50
2018-03-27T10:02:27.498Z,17.65
2018-03-27T10:04:54.482Z,17.08
2018-03-27T10:07:20.811Z,17.75
2018-03-27T10:09:47.059Z,15.88
2018-03-27T10:12:13.311Z,17.23
2018-03-27T10:14:39.575Z,15.02
2018-03-27T10:17:05.836Z,14.27
2018-03-27T10:19:32.090Z,13.20
2018-03-27T10:21:58.333Z,13.57
2018-03-27T10:24:25.346Z,12.98
2018-03-27T10:26:51.586Z,14.63
2018-03-27T10:29:17.827Z,12.82
2018-03-27T10:31:44.097Z,12.70
2018-03-27T10:34:10.435Z,12.63
2018-03-27T10:36:36.697Z,11.88
2018-03-27T10:39:03.003Z,12.00
2018-03-27T10:41:29.256Z,11.05
2018-03-27T10:43:55.503Z,10.73
2018-03-27T10:46:21.767Z,10.15
2018-03-27T10:48:48.039Z,11.88
2018-03-27T10:51:14.314Z,10.77
2018-03-27T10:53:41.292Z,12.80
2018-03-27T10:56:07.544Z,11.10
2018-03-27T10:58:33.787Z,11.43
2018-03-27T11:01:00.064Z,10.65
2018-03-27T11:03:26.296Z,9.68
2018-03-27T11:05:52.549Z,11.65
2018-03-27T11:08:18.834Z,10.07
2018-03-27T11:10:45.207Z,10.18
2018-03-27T11:13:11.467Z,9.95
2018-03-27T11:15:37.769Z,9.80
2018-03-27T11:18:04.093Z,10.38
2018-03-27T11:20:30.332Z,10.60
2018-03-27T11:22:56.601Z,11.12
2018-03-27T11:25:22.844Z,9.63
2018-03-27T11:27:49.831Z,9.95
2018-03-27T11:30:16.081Z,9.95
2018-03-27T11:32:42.347Z,10.82
2018-03-27T11:35:09.351Z,10.88
2018-03-27T11:37:35.595Z,11.80
2018-03-27T11:40:01.870Z,11.12
2018-03-27T11:42:28.911Z,12.88
2018-03-27T11:44:55.964Z,11.12
2018-03-27T11:47:22.251Z,12.23
2018-03-27T11:49:48.527Z,12.25
2018-03-27T11:52:14.772Z,12.48
2018-03-27T11:54:41.116Z,13.15
2018-03-27T11:57:07.343Z,12.30
2018-03-27T11:59:33.604Z,13.10
2018-03-27T12:01:59.915Z,12.27
2018-03-27T12:04:26.190Z,12.85
2018-03-27T12:06:53.213Z,12.70
2018-03-27T12:09:19.495Z,14.27
2018-03-27T12:11:45.759Z,11.88
2018-03-27T12:14:12.019Z,13.50
2018-03-27T12:16:39.034Z,14.23
2018-03-27T12:19:05.321Z,15.63
2018-03-27T12:21:31.596Z,14.90
2018-03-27T12:23:57.887Z,16.85
2018-03-27T12:26:24.174Z,16.25
2018-03-27T12:28:50.509Z,18.73
2018-03-27T12:31:16.771Z,17.77
2018-03-27T12:33:43.007Z,15.77
2018-03-27T12:36:09.288Z,18.02
2018-03-27T12:38:36.288Z,17.48
2018-03-27T12:41:02.628Z,15.98
2018-03-27T12:43:28.871Z,18.85
2018-03-27T12:45:55.193Z,16.58
2018-03-27T12:48:21.471Z,16.85
2018-03-27T12:50:48.483Z,16.87
2018-03-27T12:53:14.805Z,17.60
2018-03-27T12:55:41.033Z,18.37
2018-03-27T12:58:07.295Z,18.10
2018-03-27T13:00:33.540Z,17.27
2018-03-27T13:02:59.827Z,15.73
2018-03-27T13:05:27.674Z,16.25
2018-03-27T13:07:53.941Z,13.20
2018-03-27T13:10:20.196Z,13.98
2018-03-27T13:12:47.227Z,15.00
2018-03-27T13:15:13.540Z,8.25
2018-03-27T13:17:39.822Z,12.35
2018-03-27T13:20:06.116Z,8.75
2018-03-27T13:22:32.487Z,10.23
2018-03-27T13:24:58.720Z,12.00
2018-03-27T13:27:24.958Z,10.07
2018-03-27T13:29:51.236Z,11.15
2018-03-27T13:32:17.612Z,12.32
2018-03-27T13:34:43.814Z,11.27
2018-03-27T13:37:10.085Z,11.20
2018-03-27T13:39:36.356Z,11.48
2018-03-27T13:42:02.651Z,13.50
2018-03-27T13:44:28.964Z,12.25
2018-03-27T13:46:55.272Z,12.68
2018-03-27T13:49:21.507Z,14.00
2018-03-27T13:51:47.748Z,14.68
2018-03-27T13:54:14.110Z,13.77
2018-03-27T13:56:40.368Z,15.70
2018-03-27T13:59:06.635Z,14.48
2018-03-27T14:01:32.887Z,13.57
2018-03-27T14:03:59.166Z,14.60
2018-03-27T14:06:26.251Z,13.45
2018-03-27T14:08:52.529Z,15.57
2018-03-27T14:11:19.579Z,13.40
2018-03-27T14:13:46.648Z,14.15
2018-03-27T14:16:12.951Z,12.88
2018-03-27T14:18:39.199Z,15.18
2018-03-27T14:21:06.211Z,13.75
2018-03-27T14:23:33.231Z,14.38
2018-03-27T14:25:59.485Z,13.80
2018-03-27T14:28:25.751Z,14.32
2018-03-27T14:30:52.000Z,16.15
2018-03-27T14:33:18.999Z,13.88
2018-03-27T14:35:45.311Z,15.13
2018-03-27T14:38:11.621Z,14.63
2018-03-27T14:40:38.572Z,14.45
2018-03-27T14:43:04.895Z,15.50
2018-03-27T14:45:31.210Z,16.00
2018-03-27T14:47:57.479Z,15.98
2018-03-27T14:50:23.744Z,15.95
2018-03-27T14:52:50.016Z,17.08
2018-03-27T14:55:16.258Z,17.20
2018-03-27T14:57:42.693Z,16.65
2018-03-27T15:00:09.011Z,15.82
2018-03-27T15:02:35.280Z,16.02
2018-03-27T15:05:01.649Z,15.80
2018-03-27T15:07:27.942Z,15.65
2018-03-27T15:09:54.210Z,15.30
2018-03-27T15:12:21.441Z,18.23
2018-03-27T15:14:48.491Z,18.10
2018-03-27T15:17:14.760Z,18.40
2018-03-27T15:19:41.031Z,18.50
2018-03-27T15:22:08.068Z,18.08
2018-03-27T15:24:34.461Z,18.73
2018-03-27T15:27:00.723Z,19.55
2018-03-27T15:29:27.135Z,19.25
2018-03-27T15:31:53.407Z,18.70
2018-03-27T15:34:19.666Z,18.40
2018-03-27T15:36:46.696Z,18.62
2018-03-27T15:39:12.968Z,18.70
2018-03-27T15:41:39.225Z,15.68
2018-03-27T15:44:05.554Z,17.35
2018-03-27T15:46:31.799Z,14.87
2018-03-27T15:48:58.065Z,13.80
2018-03-27T15:51:25.076Z,13.57
2018-03-27T15:53:51.310Z,11.55
2018-03-27T15:56:17.572Z,11.07
2018-03-27T15:58:44.555Z,11.35
2018-03-27T16:01:10.842Z,11.35
2018-03-27T16:03:37.827Z,10.73
2018-03-27T16:06:04.135Z,11.75
2018-03-27T16:08:30.375Z,11.40
2018-03-27T16:10:56.641Z,12.20
2018-03-27T16:13:22.896Z,12.35
2018-03-27T16:15:49.967Z,13.43
2018-03-27T16:18:16.952Z,11.55
2018-03-27T16:20:43.252Z,12.75
2018-03-27T16:23:09.487Z,13.05
2018-03-27T16:25:35.739Z,13.10
2018-03-27T16:28:02.007Z,9.38
2018-03-27T16:30:28.281Z,9.05
2018-03-27T16:32:54.583Z,10.85
2018-03-27T16:35:21.587Z,9.38
2018-03-27T16:37:47.885Z,9.38
2018-03-27T16:40:14.151Z,10.13
2018-03-27T16:42:40.455Z,10.15
2018-03-27T16:45:06.712Z,10.55
2018-03-27T16:47:32.999Z,11.45
2018-03-27T16:49:59.231Z,11.20
2018-03-27T16:52:25.493Z,12.00
2018-03-27T16:54:51.750Z,11.23
2018-03-27T16:57:18.044Z,11.12
2018-03-27T16:59:44.312Z,12.85
2018-03-27T17:02:10.625Z,12.40
2018-03-27T17:04:36.907Z,12.88
2018-03-27T17:07:03.197Z,13.10
2018-03-27T17:09:30.192Z,12.05
2018-03-27T17:11:56.458Z,13.13
2018-03-27T17:14:22.760Z,12.68
2018-03-27T17:16:49.100Z,13.13
2018-03-27T17:19:15.377Z,13.40
2018-03-27T17:21:42.412Z,11.35
2018-03-27T17:24:08.700Z,12.20
2018-03-27T17:26:34.982Z,13.38
2018-03-27T17:29:02.039Z,14.87
2018-03-27T17:31:29.101Z,13.70
2018-03-27T17:33:55.324Z,13.52
2018-03-27T17:36:21.575Z,13.30
2018-03-27T17:38:47.855Z,15.50
2018-03-27T17:41:14.099Z,12.88
2018-03-27T17:43:41.104Z,13.98
2018-03-27T17:46:07.349Z,15.57
2018-03-27T17:48:33.615Z,14.77
2018-03-27T17:51:00.638Z,14.98
2018-03-27T17:53:26.923Z,16.67
2018-03-27T17:55:53.190Z,16.60
2018-03-27T17:58:19.441Z,18.00
2018-03-27T18:00:45.680Z,17.35
2018-03-27T18:03:12.676Z,16.45
2018-03-27T18:05:38.959Z,22.62
2018-03-27T18:08:05.951Z,19.40
2018-03-27T18:10:32.231Z,17.77
2018-03-27T18:12:58.487Z,20.10
2018-03-27T18:15:24.826Z,20.02
2018-03-27T18:17:51.108Z,20.60
2018-03-27T18:20:18.119Z,22.70
2018-03-27T18:22:44.456Z,23.80
2018-03-27T18:25:10.737Z,23.42
2018-03-27T18:27:37.043Z,23.20
2018-03-27T18:30:03.323Z,27.73
2018-03-27T18:32:29.596Z,24.63
2018-03-27T18:34:55.859Z,26.23
2018-03-27T18:37:22.191Z,25.62
2018-03-27T18:39:48.482Z,25.88
2018-03-27T18:42:14.756Z,28.00
2018-03-27T18:44:41.000Z,26.50
2018-03-27T18:47:07.343Z,29.52
2018-03-27T18:49:33.631Z,27.35
2018-03-27T18:52:00.692Z,30.70
2018-03-27T18:54:26.940Z,29.15
2018-03-27T18:56:53.564Z,27.73
2018-03-27T18:59:19.812Z,25.30
2018-03-27T19:01:46.079Z,27.30
2018-03-27T19:04:12.372Z,29.45
2018-03-27T19:06:38.619Z,27.60
2018-03-27T19:09:04.915Z,26.70
2018-03-27T19:11:31.167Z,26.10
2018-03-27T19:13:57.475Z,25.40
2018-03-27T19:16:23.779Z,26.33
2018-03-27T19:18:50.800Z,26.08
2018-03-27T19:21:17.047Z,28.30
2018-03-27T19:23:44.119Z,23.55
2018-03-27T19:26:10.409Z,23.20
2018-03-27T19:28:36.688Z,23.35
2018-03-27T19:31:03.019Z,22.92
2018-03-27T19:33:29.253Z,24.60
2018-03-27T19:35:55.509Z,23.30
2018-03-27T19:38:21.771Z,23.95
2018-03-27T19:40:48.054Z,23.85
2018-03-27T19:43:14.295Z,20.15
2018-03-27T19:45:40.586Z,20.52
2018-03-27T19:48:06.858Z,19.48
2018-03-27T19:50:33.124Z,21.10
2018-03-27T19:52:59.359Z,22.77
2018-03-27T19:55:26.372Z,21.05
2018-03-27T19:57:52.665Z,24.23
2018-03-27T20:00:18.929Z,23.55
2018-03-27T20:02:45.176Z,22.45
2018-03-27T20:05:11.513Z,22.73
2018-03-27T20:07:39.464Z,22.85
2018-03-27T20:10:05.748Z,24.58
2018-03-27T20:12:32.037Z,24.95
2018-03-27T20:14:58.873Z,25.98
2018-03-27T20:17:25.154Z,24.00
2018-03-27T20:19:51.405Z,23.75
2018-03-27T20:22:17.673Z,24.73
2018-03-27T20:24:44.679Z,26.33
2018-03-27T20:27:10.960Z,27.25
2018-03-27T20:29:37.954Z,27.55
2018-03-27T20:32:04.248Z,25.25
2018-03-27T20:34:30.499Z,27.40
2018-03-27T20:36:56.783Z,25.50
2018-03-27T20:39:23.027Z,24.83
2018-03-27T20:41:50.044Z,27.02
2018-03-27T20:44:16.364Z,26.77
2018-03-27T20:46:42.661Z,26.00
2018-03-27T20:49:08.941Z,26.12
2018-03-27T20:51:35.164Z,25.92
2018-03-27T20:54:01.421Z,26.17
2018-03-27T20:56:28.431Z,26.37
2018-03-27T20:58:54.703Z,26.27
2018-03-27T21:01:21.682Z,25.55
2018-03-27T21:03:48.000Z,24.87
2018-03-27T21:06:14.317Z,25.62
2018-03-27T21:08:41.407Z,25.15
2018-03-27T21:11:07.665Z,24.85
2018-03-27T21:13:33.960Z,24.08
2018-03-27T21:16:00.216Z,24.35
2018-03-27T21:18:26.487Z,25.90
2018-03-27T21:20:52.758Z,24.10
2018-03-27T21:23:19.032Z,24.00
2018-03-27T21:25:45.304Z,26.60
2018-03-27T21:28:11.554Z,27.45
2018-03-27T21:30:37.805Z,25.08
2018-03-27T21:33:04.042Z,26.23
2018-03-27T21:35:31.065Z,27.02
2018-03-27T21:37:57.308Z,26.42
2018-03-27T21:40:23.588Z,25.90
2018-03-27T21:42:49.850Z,22.30
2018-03-27T21:45:16.147Z,28.17
2018-03-27T21:47:42.427Z,27.52
2018-03-27T21:50:08.712Z,27.20
2018-03-27T21:52:34.958Z,27.45
2018-03-27T21:55:01.227Z,26.08
2018-03-27T21:57:27.455Z,28.08
2018-03-27T21:59:53.985Z,25.27
2018-03-27T22:02:20.991Z,24.63
2018-03-27T22:04:47.243Z,26.83
2018-03-27T22:07:13.496Z,24.50
2018-03-27T22:09:40.487Z,24.63
2018-03-27T22:12:06.756Z,24.25
2018-03-27T22:14:33.004Z,26.83
2018-03-27T22:17:00.070Z,24.35
2018-03-27T22:19:27.040Z,30.65
2018-03-27T22:21:53.303Z,24.70
2018-03-27T22:24:19.553Z,23.50
2018-03-27T22:26:45.811Z,24.42
2018-03-27T22:29:12.047Z,23.83
2018-03-27T22:31:38.295Z,23.12
2018-03-27T22:34:04.571Z,22.98
2018-03-27T22:36:30.832Z,23.90
2018-03-27T22:38:57.078Z,22.92
2018-03-27T22:41:23.392Z,23.67
2018-03-27T22:43:49.772Z,24.27
2018-03-27T22:46:16.044Z,22.25
2018-03-27T22:48:43.099Z,22.55
2018-03-27T22:51:09.464Z,24.95
2018-03-27T22:53:35.724Z,22.80
2018-03-27T22:56:02.023Z,20.33
2018-03-27T22:58:28.343Z,23.70
2018-03-27T23:00:54.623Z,20.50
2018-03-27T23:03:20.885Z,19.30
2018-03-27T23:05:47.144Z,18.42
2018-03-27T23:08:13.430Z,17.83
2018-03-27T23:10:39.703Z,19.70
2018-03-27T23:13:06.246Z,19.02
2018-03-27T23:15:32.495Z,17.95
2018-03-27T23:17:58.762Z,16.58
2018-03-27T23:20:25.040Z,15.80
2018-03-27T23:22:51.427Z,16.12
2018-03-27T23:25:17.691Z,14.48
2018-03-27T23:27:44.024Z,14.73
2018-03-27T23:30:10.301Z,15.07
2018-03-27T23:32:37.328Z,13.70
2018-03-27T23:35:03.615Z,15.30
2018-03-27T23:37:29.872Z,13.30
2018-03-27T23:39:56.142Z,13.90
2018-03-27T23:42:23.139Z,14.10
2018-03-27T23:44:49.399Z,14.27
2018-03-27T23:47:15.639Z,15.35
2018-03-27T23:49:42.635Z,13.18
2018-03-27T23:52:08.880Z,13.25
2018-03-27T23:54:35.153Z,13.52
2018-03-27T23:57:02.172Z,14.10
2018-03-27T23:59:28.435Z,13.85
